Time;durP1;ratioP1;P1;durP2;ratioP2;P2;SDS_P1;SDS_P2;PMS_P1;PMS_P2;Temp;Humidity;BMP_temperature;BMP_pressure;BME280_temperature;BME280_humidity;BME280_pressure;Samples;Min_cycle;Max_cycle;Signal;HPM_P1;HPM_P2
2022/04/24 00:00:22;;;;;;;58.75;39.75;;;;;;;4.12;100.00;98150.63;2066304;28;20201;-79
2022/04/24 00:01:22;;;;;;;56.67;39.10;;;;;;;4.10;100.00;98152.00;2066069;28;20550;-79
2022/04/24 00:02:24;;;;;;;59.00;39.40;;;;;;;4.11;100.00;98151.72;2075862;28;20289;-78
2022/04/24 00:03:26;;;;;;;65.35;40.80;;;;;;;4.08;100.00;98154.09;2065660;28;20328;-78
2022/04/24 00:04:29;;;;;;;65.50;38.88;;;;;;;4.07;100.00;98152.53;2066293;28;20193;-78
2022/04/24 00:05:29;;;;;;;61.78;39.03;;;;;;;4.05;100.00;98152.00;2066544;28;20201;-78
2022/04/24 00:06:32;;;;;;;62.33;40.77;;;;;;;4.01;100.00;98143.09;2065479;28;20299;-79
2022/04/24 00:07:33;;;;;;;58.58;39.55;;;;;;;3.98;100.00;98144.41;2065846;28;20204;-78
2022/04/24 00:08:37;;;;;;;59.70;38.30;;;;;;;3.97;100.00;98148.91;2066323;28;20193;-79
2022/04/24 00:09:38;;;;;;;60.47;39.90;;;;;;;3.94;100.00;98149.44;2057850;28;20471;-79
2022/04/24 00:10:39;;;;;;;51.53;36.88;;;;;;;3.86;100.00;98143.97;2059720;28;20685;-79
2022/04/24 00:11:42;;;;;;;61.88;39.90;;;;;;;3.86;100.00;98147.41;2057437;28;20213;-78
2022/04/24 00:12:45;;;;;;;52.35;37.58;;;;;;;3.81;100.00;98154.53;2057963;28;20217;-78
2022/04/24 00:13:46;;;;;;;51.58;38.72;;;;;;;3.75;100.00;98145.91;2057509;28;20205;-78
2022/04/24 00:14:49;;;;;;;52.07;36.33;;;;;;;3.71;100.00;98144.84;2065957;28;20193;-79
2022/04/24 00:15:50;;;;;;;60.25;40.75;;;;;;;3.67;100.00;98149.09;2065786;28;20200;-79
2022/04/24 00:16:54;;;;;;;66.90;41.17;;;;;;;3.63;100.00;98137.50;2057718;28;20680;-78
2022/04/24 00:17:55;;;;;;;61.88;39.92;;;;;;;3.60;100.00;98143.34;2058381;28;20213;-78
2022/04/24 00:18:58;;;;;;;59.57;41.27;;;;;;;3.56;100.00;98137.03;2065698;28;20188;-79
2022/04/24 00:19:59;;;;;;;65.28;42.13;;;;;;;3.54;100.00;98136.50;2065594;28;20482;-79
2022/04/24 00:21:01;;;;;;;63.60;40.13;;;;;;;3.55;100.00;98138.09;2057063;28;20664;-79
2022/04/24 00:22:02;;;;;;;53.92;39.15;;;;;;;3.53;100.00;98137.56;2057660;28;20225;-78
2022/04/24 00:23:06;;;;;;;66.50;40.90;;;;;;;3.49;100.00;98126.78;2057681;28;20652;-78
2022/04/24 00:24:09;;;;;;;61.63;38.05;;;;;;;3.51;100.00;98137.84;2065063;28;20232;-79
2022/04/24 00:25:11;;;;;;;58.83;37.78;;;;;;;3.50;100.00;98133.66;2065745;28;20592;-79
2022/04/24 00:26:12;;;;;;;55.97;36.67;;;;;;;3.49;100.00;98134.72;2074450;28;20196;-79
2022/04/24 00:27:14;;;;;;;60.47;41.10;;;;;;;3.46;100.00;98134.44;2074515;28;20280;-79
2022/04/24 00:28:15;;;;;;;58.63;40.47;;;;;;;3.43;100.00;98127.09;2073060;28;20247;-78
2022/04/24 00:29:17;;;;;;;58.20;39.37;;;;;;;3.39;100.00;98127.66;2065517;28;20228;-79
2022/04/24 00:30:18;;;;;;;56.33;38.95;;;;;;;3.36;100.00;98122.91;2057577;28;20209;-79
2022/04/24 00:31:21;;;;;;;58.53;40.28;;;;;;;3.33;100.00;98118.16;2057436;28;20241;-79
2022/04/24 00:32:22;;;;;;;62.35;39.53;;;;;;;3.31;100.00;98116.88;2065916;28;20611;-79
2022/04/24 00:33:24;;;;;;;54.83;37.80;;;;;;;3.28;100.00;98115.56;2074380;28;20193;-79
2022/04/24 00:34:26;;;;;;;59.25;40.38;;;;;;;3.26;100.00;98109.78;2074175;28;20192;-79
2022/04/24 00:35:28;;;;;;;62.67;40.67;;;;;;;3.25;100.00;98112.69;2065488;28;20199;-79
2022/04/24 00:36:29;;;;;;;59.65;40.83;;;;;;;3.25;100.00;98110.03;2065349;28;20558;-79
2022/04/24 00:37:30;;;;;;;56.27;38.70;;;;;;;3.20;100.00;98102.16;2065453;28;20244;-79
2022/04/24 00:38:32;;;;;;;56.85;39.63;;;;;;;3.20;100.00;98110.06;2065629;28;20185;-79
2022/04/24 00:39:36;;;;;;;56.95;39.75;;;;;;;3.17;100.00;98106.13;2065129;28;20635;-79
2022/04/24 00:40:37;;;;;;;58.72;39.13;;;;;;;3.13;100.00;98102.47;2057786;28;20186;-79
2022/04/24 00:41:45;;;;;;;59.17;38.90;;;;;;;3.10;100.00;98098.50;2065659;28;20227;-79
2022/04/24 00:42:46;;;;;;;54.20;38.85;;;;;;;3.07;100.00;98100.91;2065415;28;20189;-78
2022/04/24 00:43:52;;;;;;;62.40;40.20;;;;;;;3.07;100.00;98106.19;2056700;28;20240;-80
2022/04/24 00:45:12;;;;;;;58.72;41.85;;;;;;;3.08;100.00;98113.03;2070138;28;20268;-79
2022/04/24 00:46:23;;;;;;;60.78;41.67;;;;;;;3.08;100.00;98113.03;2065481;28;20694;-79
2022/04/24 00:47:25;;;;;;;67.03;42.80;;;;;;;3.11;100.00;98110.63;2059526;28;20213;-79
2022/04/24 00:48:28;;;;;;;60.38;41.75;;;;;;;3.12;100.00;98112.19;2065748;28;20192;-79
2022/04/24 00:49:29;;;;;;;62.67;41.65;;;;;;;3.12;100.00;98112.19;2074393;28;20275;-79
2022/04/24 00:50:31;;;;;;;64.05;42.38;;;;;;;3.17;100.00;98111.41;2065334;28;20201;-79
2022/04/24 00:51:33;;;;;;;64.57;42.13;;;;;;;3.19;100.00;98111.13;2056397;28;20260;-79
2022/04/24 00:52:35;;;;;;;72.05;42.83;;;;;;;3.24;100.00;98116.38;2058393;28;20205;-79
2022/04/24 00:53:38;;;;;;;61.72;40.72;;;;;;;3.28;100.00;98114.75;2057200;28;20229;-79
2022/04/24 00:54:44;;;;;;;59.95;40.72;;;;;;;3.31;100.00;98115.03;2057726;28;20544;-79
2022/04/24 00:55:45;;;;;;;60.65;41.50;;;;;;;3.34;100.00;98113.69;2066404;28;20173;-79
2022/04/24 00:56:47;;;;;;;64.37;40.13;;;;;;;3.36;100.00;98116.84;2065275;28;20193;-79
2022/04/24 00:57:48;;;;;;;61.55;41.33;;;;;;;3.37;100.00;98106.00;2057493;28;20703;-79
2022/04/24 00:58:54;;;;;;;60.70;40.93;;;;;;;3.39;100.00;98111.81;2056920;28;20633;-79
2022/04/24 00:59:56;;;;;;;57.22;40.97;;;;;;;3.42;100.00;98105.22;2058050;28;20186;-79
2022/04/24 01:01:00;;;;;;;56.67;39.65;;;;;;;3.46;100.00;98105.44;2057093;28;20671;-79
2022/04/24 01:02:04;;;;;;;60.53;40.50;;;;;;;3.48;100.00;98098.84;2057162;28;20193;-79
2022/04/24 01:03:05;;;;;;;63.00;40.63;;;;;;;3.53;100.00;98103.28;2065843;28;20188;-79
2022/04/24 01:04:08;;;;;;;59.78;39.25;;;;;;;3.56;100.00;98100.09;2065235;28;20296;-79
2022/04/24 01:05:10;;;;;;;59.15;39.10;;;;;;;3.59;100.00;98094.28;2057732;28;20292;-79
2022/04/24 01:06:16;;;;;;;56.28;39.35;;;;;;;3.59;100.00;98095.09;2057284;28;20197;-79
2022/04/24 01:07:18;;;;;;;64.78;42.17;;;;;;;3.62;100.00;98088.47;2057838;28;20217;-78
2022/04/24 01:08:18;;;;;;;67.68;41.72;;;;;;;3.64;100.00;98094.25;2057646;28;20348;-78
2022/04/24 01:09:21;;;;;;;61.87;40.93;;;;;;;3.66;100.00;98097.41;2065733;28;20242;-79
2022/04/24 01:10:24;;;;;;;58.20;40.03;;;;;;;3.66;100.00;98094.78;2065883;28;20213;-79
2022/04/24 01:11:25;;;;;;;61.05;40.13;;;;;;;3.69;100.00;98096.88;2057688;28;20205;-79
2022/04/24 01:12:29;;;;;;;62.35;42.20;;;;;;;3.72;100.00;98101.56;2065656;28;20193;-79
2022/04/24 01:13:29;;;;;;;61.92;42.47;;;;;;;3.74;100.00;98102.13;2074602;28;20680;-79
2022/04/24 01:14:34;;;;;;;57.20;39.97;;;;;;;3.79;100.00;98096.78;2074242;28;20544;-79
2022/04/24 01:15:35;;;;;;;55.58;38.92;;;;;;;3.82;100.00;98098.91;2065271;28;20197;-79
2022/04/24 01:16:38;;;;;;;60.30;40.40;;;;;;;3.86;100.00;98093.84;2058582;28;20198;-79
2022/04/24 01:17:40;;;;;;;60.95;40.42;;;;;;;3.89;100.00;98098.56;2065567;28;20364;-79
2022/04/24 01:18:41;;;;;;;59.63;39.90;;;;;;;3.95;100.00;98090.34;2065646;28;20205;-78
2022/04/24 01:19:44;;;;;;;56.77;39.03;;;;;;;4.00;100.00;98104.53;2065362;28;20248;-79
2022/04/24 01:20:47;;;;;;;59.40;41.85;;;;;;;4.03;100.00;98088.16;2073901;28;20427;-79
2022/04/24 01:21:50;;;;;;;68.07;43.08;;;;;;;4.06;100.00;98092.88;2064346;28;20290;-79
2022/04/24 01:22:52;;;;;;;64.40;40.20;;;;;;;4.10;100.00;98091.28;2064975;28;20200;-79
2022/04/24 01:23:54;;;;;;;65.22;41.45;;;;;;;4.13;100.00;98093.34;2064877;28;20197;-79
2022/04/24 01:24:55;;;;;;;56.53;40.92;;;;;;;4.15;100.00;98091.22;2057248;28;20233;-79
2022/04/24 01:25:57;;;;;;;61.63;41.43;;;;;;;4.18;100.00;98085.41;2057174;28;20659;-79
2022/04/24 01:26:58;;;;;;;59.05;40.58;;;;;;;4.17;100.00;98089.91;2057289;28;20197;-79
2022/04/24 01:28:00;;;;;;;59.13;40.22;;;;;;;4.20;100.00;98091.97;2057098;28;20209;-79
2022/04/24 01:29:02;;;;;;;60.22;40.70;;;;;;;4.22;100.00;98081.13;2064859;28;20216;-79
2022/04/24 01:30:07;;;;;;;57.83;38.78;;;;;;;4.25;100.00;98089.25;2057618;28;20562;-79
2022/04/24 01:31:08;;;;;;;55.75;39.13;;;;;;;4.27;100.00;98083.72;2056758;28;20284;-79
2022/04/24 01:32:10;;;;;;;56.87;39.17;;;;;;;4.27;100.00;98085.59;2066093;28;20225;-78
2022/04/24 01:33:11;;;;;;;56.35;39.72;;;;;;;4.30;100.00;98085.03;2065187;28;20201;-79
2022/04/24 01:34:13;;;;;;;58.33;39.53;;;;;;;4.33;100.00;98082.59;2064564;28;20299;-79
2022/04/24 01:35:15;;;;;;;57.05;39.28;;;;;;;4.36;100.00;98076.00;2057625;28;20229;-79
2022/04/24 01:36:18;;;;;;;64.47;39.35;;;;;;;4.37;100.00;98081.00;2056582;28;20221;-79
2022/04/24 01:37:19;;;;;;;55.35;39.83;;;;;;;4.40;100.00;98083.06;2065979;28;20177;-78
2022/04/24 01:38:21;;;;;;;59.27;40.30;;;;;;;4.44;100.00;98084.09;2065188;28;20666;-79
2022/04/24 01:39:23;;;;;;;52.75;40.53;;;;;;;4.46;100.00;98081.94;2057008;28;20208;-78
2022/04/24 01:40:23;;;;;;;59.35;40.13;;;;;;;4.46;100.00;98079.31;2065734;28;20205;-79
2022/04/24 01:41:26;;;;;;;59.00;41.03;;;;;;;4.46;100.00;98076.66;2065152;28;20189;-79
2022/04/24 01:42:27;;;;;;;59.50;41.05;;;;;;;4.46;100.00;98076.66;2066079;28;20193;-78
2022/04/24 01:43:29;;;;;;;54.27;39.30;;;;;;;4.48;100.00;98079.81;2066048;28;20212;-79
2022/04/24 01:44:32;;;;;;;58.25;40.58;;;;;;;4.51;100.00;98081.88;2065123;28;20197;-78
2022/04/24 01:45:35;;;;;;;58.50;40.00;;;;;;;4.53;100.00;98086.91;2057792;28;20197;-79
2022/04/24 01:46:36;;;;;;;55.13;39.60;;;;;;;4.52;100.00;98083.47;2066056;28;20522;-79
2022/04/24 01:47:37;;;;;;;57.50;39.00;;;;;;;4.56;100.00;98088.19;2067284;28;20303;-78
2022/04/24 01:48:39;;;;;;;56.45;39.92;;;;;;;4.57;100.00;98077.34;2058695;28;20197;-79
2022/04/24 01:49:41;;;;;;;59.88;38.58;;;;;;;4.59;100.00;98084.97;2066754;28;20213;-79
2022/04/24 01:50:41;;;;;;;55.83;39.67;;;;;;;4.59;100.00;98079.69;2067118;28;20227;-79
2022/04/24 01:51:46;;;;;;;54.17;39.67;;;;;;;4.61;100.00;98075.72;2066368;28;20232;-79
2022/04/24 01:52:47;;;;;;;56.65;39.28;;;;;;;4.63;100.00;98076.22;2068110;28;20279;-77
2022/04/24 01:53:49;;;;;;;56.53;39.08;;;;;;;4.65;100.00;98076.72;2066777;28;20667;-79
2022/04/24 01:54:52;;;;;;;53.75;37.20;;;;;;;4.66;100.00;98073.00;2066839;28;20197;-79
2022/04/24 01:55:55;;;;;;;55.30;39.83;;;;;;;4.68;100.00;98072.72;2067469;28;20247;-79
2022/04/24 01:56:55;;;;;;;55.22;40.35;;;;;;;4.70;100.00;98067.97;2058758;28;20205;-79
2022/04/24 01:57:59;;;;;;;52.80;38.27;;;;;;;4.74;100.00;98076.91;2066863;28;20192;-78
2022/04/24 01:59:00;;;;;;;60.72;39.45;;;;;;;4.77;100.00;98076.31;2067571;28;20200;-79
2022/04/24 02:00:02;;;;;;;56.05;39.05;;;;;;;4.78;100.00;98077.94;2067328;28;20216;-79
2022/04/24 02:01:03;;;;;;;51.50;38.05;;;;;;;4.78;100.00;98067.34;2066833;28;20193;-79
2022/04/24 02:02:08;;;;;;;52.13;39.38;;;;;;;4.80;100.00;98065.22;2066739;28;20556;-79
2022/04/24 02:03:11;;;;;;;53.88;39.78;;;;;;;4.79;100.00;98059.13;2066744;28;20666;-79
2022/04/24 02:04:12;;;;;;;54.33;38.80;;;;;;;4.80;100.00;98055.44;2058825;28;20213;-79
2022/04/24 02:05:14;;;;;;;56.65;39.35;;;;;;;4.81;100.00;98056.22;2058712;28;20217;-78
2022/04/24 02:06:16;;;;;;;54.53;37.55;;;;;;;4.83;100.00;98054.06;2066545;28;20229;-79
2022/04/24 02:07:19;;;;;;;57.50;38.97;;;;;;;4.83;100.00;98049.56;2067264;28;20764;-79
2022/04/24 02:08:20;;;;;;;51.03;38.03;;;;;;;4.84;100.00;98045.06;2067286;28;20197;-79
2022/04/24 02:09:24;;;;;;;51.95;37.78;;;;;;;4.83;100.00;98040.84;2067306;28;20561;-79
2022/04/24 02:10:25;;;;;;;56.28;37.90;;;;;;;4.83;100.00;98041.63;2066570;28;20197;-78
2022/04/24 02:11:29;;;;;;;52.53;38.30;;;;;;;4.87;100.00;98046.38;2058610;28;20198;-79
2022/04/24 02:12:32;;;;;;;54.03;38.88;;;;;;;4.87;100.00;98049.03;2066725;28;20189;-79
2022/04/24 02:13:36;;;;;;;55.65;39.35;;;;;;;4.87;100.00;98043.72;2067268;28;20186;-79
2022/04/24 02:14:37;;;;;;;55.03;37.83;;;;;;;4.89;100.00;98041.59;2067283;28;20557;-79
2022/04/24 02:15:40;;;;;;;54.85;38.45;;;;;;;4.91;100.00;98044.72;2066627;28;20759;-79
2022/04/24 02:16:41;;;;;;;54.13;37.78;;;;;;;4.92;100.00;98054.22;2058765;28;20206;-80
2022/04/24 02:17:43;;;;;;;55.80;38.13;;;;;;;4.93;100.00;98051.28;2066547;28;20197;-80
2022/04/24 02:18:44;;;;;;;53.47;38.25;;;;;;;4.94;100.00;98044.94;2074668;28;20754;-79
2022/04/24 02:19:47;;;;;;;57.28;39.30;;;;;;;4.95;100.00;98054.47;2066708;28;20205;-79
2022/04/24 02:20:48;;;;;;;57.45;38.88;;;;;;;4.96;100.00;98055.25;2066792;28;20189;-79
2022/04/24 02:21:49;;;;;;;53.40;38.83;;;;;;;4.97;100.00;98044.38;2066164;28;20224;-79
2022/04/24 02:22:55;;;;;;;55.42;39.47;;;;;;;4.96;100.00;98056.03;2066673;28;20579;-78
2022/04/24 02:23:57;;;;;;;53.58;38.00;;;;;;;5.00;100.00;98054.38;2067273;28;20180;-78
2022/04/24 02:24:57;;;;;;;57.55;39.63;;;;;;;5.09;100.00;98057.19;2066554;28;20208;-78
2022/04/24 02:26:00;;;;;;;56.87;39.07;;;;;;;5.11;100.00;98055.03;2058348;28;20653;-78
2022/04/24 02:27:03;;;;;;;56.38;40.33;;;;;;;5.09;100.00;98050.03;2058681;28;20698;-78
2022/04/24 02:28:05;;;;;;;50.95;38.63;;;;;;;5.06;100.00;98052.47;2066639;28;20188;-78
2022/04/24 02:29:06;;;;;;;55.88;39.47;;;;;;;5.05;100.00;98051.69;2067407;28;20197;-78
2022/04/24 02:30:09;;;;;;;55.90;39.43;;;;;;;5.05;100.00;98043.75;2066391;28;20260;-79
2022/04/24 02:31:10;;;;;;;57.47;38.63;;;;;;;5.06;100.00;98047.19;2066442;28;20695;-78
2022/04/24 02:32:12;;;;;;;53.53;39.03;;;;;;;5.04;100.00;98042.19;2067257;28;20622;-78
2022/04/24 02:33:13;;;;;;;53.75;39.38;;;;;;;5.04;100.00;98044.81;2066410;28;20695;-78
2022/04/24 02:34:15;;;;;;;53.70;38.17;;;;;;;5.07;100.00;98038.97;2066501;28;20247;-78
2022/04/24 02:35:16;;;;;;;57.95;39.90;;;;;;;5.06;100.00;98045.31;2066190;28;20216;-78
2022/04/24 02:36:18;;;;;;;61.47;41.07;;;;;;;5.09;100.00;98042.09;2058036;28;20271;-78
2022/04/24 02:37:19;;;;;;;59.13;39.85;;;;;;;5.08;100.00;98045.03;2066369;28;20219;-78
2022/04/24 02:38:23;;;;;;;60.17;40.50;;;;;;;5.09;100.00;98039.47;2066581;28;20589;-78
2022/04/24 02:39:24;;;;;;;65.78;42.92;;;;;;;5.14;100.00;98046.53;2067015;28;20200;-78
2022/04/24 02:40:27;;;;;;;64.83;41.97;;;;;;;5.13;100.00;98038.91;2067050;28;20196;-78
2022/04/24 02:41:29;;;;;;;66.72;42.25;;;;;;;5.14;100.00;98040.47;2067021;28;20243;-78
2022/04/24 02:42:31;;;;;;;60.78;41.30;;;;;;;5.17;100.00;98031.97;2066926;28;20188;-78
2022/04/24 02:43:32;;;;;;;63.95;43.33;;;;;;;5.16;100.00;98030.41;2066391;28;20201;-78
2022/04/24 02:44:34;;;;;;;62.03;42.83;;;;;;;5.17;100.00;98030.09;2066620;28;20676;-78
2022/04/24 02:45:35;;;;;;;71.65;44.33;;;;;;;5.17;100.00;98030.09;2066416;28;20729;-79
2022/04/24 02:46:42;;;;;;;64.15;43.25;;;;;;;5.19;100.00;98038.53;2066463;28;20185;-78
2022/04/24 02:47:43;;;;;;;67.85;44.65;;;;;;;5.21;100.00;98035.59;2067052;28;20200;-78
2022/04/24 02:48:45;;;;;;;61.28;43.05;;;;;;;5.23;100.00;98041.41;2067016;28;20652;-78
2022/04/24 02:49:46;;;;;;;66.15;44.72;;;;;;;5.25;100.00;98042.69;2066163;28;20216;-78
2022/04/24 02:50:47;;;;;;;67.33;44.73;;;;;;;5.24;100.00;98030.53;2066429;28;20291;-78
2022/04/24 02:51:48;;;;;;;67.85;45.47;;;;;;;5.24;100.00;98030.53;2074090;28;20224;-79
2022/04/24 02:52:53;;;;;;;66.13;45.03;;;;;;;5.35;100.00;98024.03;2066342;28;20228;-78
2022/04/24 02:53:56;;;;;;;69.57;46.58;;;;;;;5.38;100.00;98025.28;2066569;28;20717;-78
2022/04/24 02:55:00;;;;;;;72.25;47.35;;;;;;;5.38;100.00;98022.66;2065770;28;20212;-78
2022/04/24 02:56:02;;;;;;;65.95;46.38;;;;;;;5.37;100.00;98026.38;2066548;28;20246;-78
2022/04/24 02:57:05;;;;;;;70.68;47.13;;;;;;;5.35;100.00;98028.53;2066216;28;20196;-78
2022/04/24 02:58:07;;;;;;;71.47;48.30;;;;;;;5.34;100.00;98027.75;2058307;28;20200;-78
2022/04/24 02:59:08;;;;;;;72.03;48.55;;;;;;;5.34;100.00;98034.88;2058215;28;20209;-79
2022/04/24 03:00:11;;;;;;;70.20;48.10;;;;;;;5.33;100.00;98030.69;2066436;28;20185;-79
2022/04/24 03:01:14;;;;;;;76.90;48.85;;;;;;;5.31;100.00;98036.25;2065863;28;20205;-78
2022/04/24 03:02:18;;;;;;;69.60;49.25;;;;;;;5.33;100.00;98038.63;2066333;28;20243;-78
2022/04/24 03:03:20;;;;;;;70.00;48.53;;;;;;;5.35;100.00;98031.16;2065752;28;20212;-78
2022/04/24 03:04:21;;;;;;;70.57;49.40;;;;;;;5.34;100.00;98021.66;2058159;28;20201;-79
2022/04/24 03:05:23;;;;;;;72.03;51.50;;;;;;;5.36;100.00;98027.44;2066195;28;20196;-78
2022/04/24 03:06:26;;;;;;;74.20;51.25;;;;;;;5.36;100.00;98030.09;2065809;28;20247;-79
2022/04/24 03:07:27;;;;;;;75.85;51.60;;;;;;;5.35;100.00;98018.72;2066254;28;20193;-78
2022/04/24 03:08:31;;;;;;;75.27;51.57;;;;;;;5.41;100.00;98010.72;2067138;28;20672;-78
2022/04/24 03:09:34;;;;;;;81.20;53.10;;;;;;;5.39;100.00;98013.66;2066753;28;20193;-78
2022/04/24 03:10:35;;;;;;;79.63;53.60;;;;;;;5.36;100.00;98008.94;2066049;28;20250;-79
2022/04/24 03:11:36;;;;;;;80.03;52.65;;;;;;;5.35;100.00;98012.66;2066475;28;20192;-79
2022/04/24 03:12:38;;;;;;;77.80;54.73;;;;;;;5.35;100.00;98010.00;2067001;28;20217;-78
2022/04/24 03:13:39;;;;;;;82.55;55.95;;;;;;;5.30;100.00;97999.50;2067045;28;20193;-78
2022/04/24 03:14:42;;;;;;;87.13;56.30;;;;;;;5.34;100.00;98008.44;2066744;28;20235;-79
2022/04/24 03:15:46;;;;;;;80.75;54.53;;;;;;;5.30;100.00;98004.78;2066767;28;20196;-79
2022/04/24 03:16:47;;;;;;;84.13;56.25;;;;;;;5.30;100.00;98005.59;2067010;28;20239;-79
2022/04/24 03:17:50;;;;;;;87.23;57.27;;;;;;;5.34;100.00;98009.22;2066861;28;20189;-78
2022/04/24 03:18:51;;;;;;;80.03;54.42;;;;;;;5.34;100.00;98008.44;2066136;28;20563;-79
2022/04/24 03:19:52;;;;;;;85.40;55.67;;;;;;;5.33;100.00;98005.00;2066337;28;20186;-79
2022/04/24 03:20:55;;;;;;;83.20;54.90;;;;;;;5.33;100.00;98012.94;2066112;28;20248;-77
2022/04/24 03:21:58;;;;;;;86.60;55.28;;;;;;;5.35;100.00;98008.16;2065744;28;20201;-78
2022/04/24 03:22:59;;;;;;;79.20;55.35;;;;;;;5.39;100.00;98016.31;2066201;28;20224;-78
2022/04/24 03:24:01;;;;;;;81.65;55.17;;;;;;;5.37;100.00;98013.16;2066014;28;20259;-78
2022/04/24 03:25:05;;;;;;;87.25;55.80;;;;;;;5.37;100.00;98021.09;2066124;28;20280;-78
2022/04/24 03:26:06;;;;;;;80.63;53.90;;;;;;;5.36;100.00;98016.88;2066672;28;20560;-78
2022/04/24 03:27:07;;;;;;;82.00;53.92;;;;;;;5.38;100.00;98020.00;2066799;28;20220;-78
2022/04/24 03:28:09;;;;;;;77.53;53.63;;;;;;;5.49;100.00;98020.66;2065928;28;20197;-78
2022/04/24 03:29:11;;;;;;;78.82;54.70;;;;;;;5.45;100.00;98019.66;2058127;28;20232;-78
2022/04/24 03:30:14;;;;;;;79.07;54.65;;;;;;;5.44;100.00;98016.22;2066157;28;20671;-78
2022/04/24 03:31:15;;;;;;;84.22;54.60;;;;;;;5.42;100.00;98017.59;2073684;28;20259;-78
2022/04/24 03:32:17;;;;;;;82.30;53.83;;;;;;;5.42;100.00;98017.59;2074923;28;20192;-78
2022/04/24 03:33:18;;;;;;;83.30;53.63;;;;;;;5.42;100.00;98023.66;2074672;28;20192;-78
2022/04/24 03:34:19;;;;;;;75.20;52.20;;;;;;;5.43;100.00;98027.88;2074871;28;20181;-78
2022/04/24 03:35:20;;;;;;;82.63;55.35;;;;;;;5.44;100.00;98021.50;2065325;28;20213;-78
2022/04/24 03:36:25;;;;;;;87.37;55.00;;;;;;;5.46;100.00;98027.28;2065774;28;20308;-78
2022/04/24 03:37:28;;;;;;;79.63;53.22;;;;;;;5.47;100.00;98031.50;2074962;28;20181;-78
2022/04/24 03:38:30;;;;;;;83.72;54.47;;;;;;;5.46;100.00;98024.66;2074717;28;20192;-78
2022/04/24 03:39:31;;;;;;;83.15;54.28;;;;;;;5.45;100.00;98028.38;2065247;28;20208;-78
2022/04/24 03:40:34;;;;;;;76.33;54.13;;;;;;;5.45;100.00;98025.72;2066029;28;20213;-78
2022/04/24 03:41:35;;;;;;;78.68;53.53;;;;;;;5.44;100.00;98031.31;2065848;28;20295;-78
2022/04/24 03:42:42;;;;;;;75.93;52.80;;;;;;;5.40;100.00;98023.16;2057900;28;20197;-78
2022/04/24 03:43:44;;;;;;;77.00;53.45;;;;;;;5.44;100.00;98026.81;2067020;28;20178;-78
2022/04/24 03:44:48;;;;;;;80.30;53.65;;;;;;;5.43;100.00;98029.75;2065912;28;20227;-78
2022/04/24 03:45:49;;;;;;;78.82;53.13;;;;;;;5.46;100.00;98027.28;2066561;28;20719;-78
2022/04/24 03:46:51;;;;;;;78.93;53.33;;;;;;;5.45;100.00;98022.28;2074624;28;20211;-78
2022/04/24 03:47:51;;;;;;;81.10;54.08;;;;;;;5.44;100.00;98029.44;2074611;28;20196;-78
2022/04/24 03:48:53;;;;;;;82.88;55.47;;;;;;;5.44;100.00;98029.44;2074562;28;20239;-78
2022/04/24 03:49:54;;;;;;;84.03;54.22;;;;;;;5.43;100.00;98033.16;2065770;28;20588;-78
2022/04/24 03:50:58;;;;;;;80.93;54.97;;;;;;;5.42;100.00;98044.03;2065624;28;20193;-78
2022/04/24 03:51:59;;;;;;;82.38;56.00;;;;;;;5.43;100.00;98040.31;2065176;28;20300;-79
2022/04/24 03:53:01;;;;;;;83.57;57.47;;;;;;;5.44;100.00;98042.66;2057738;28;20209;-78
2022/04/24 03:54:02;;;;;;;77.43;55.97;;;;;;;5.50;100.00;98046.81;2065938;28;20695;-78
2022/04/24 03:55:04;;;;;;;87.63;56.17;;;;;;;5.59;100.00;98055.69;2074739;28;20184;-79
2022/04/24 03:56:06;;;;;;;83.32;55.97;;;;;;;5.61;100.00;98058.81;2074737;28;20525;-79
2022/04/24 03:57:10;;;;;;;81.90;57.25;;;;;;;5.68;100.00;98059.25;2065778;28;20234;-78
2022/04/24 03:58:11;;;;;;;82.30;55.67;;;;;;;5.59;100.00;98060.97;2066303;28;20190;-78
2022/04/24 03:59:13;;;;;;;80.20;54.70;;;;;;;5.52;100.00;98071.13;2074697;28;20188;-78
2022/04/24 04:00:15;;;;;;;78.65;55.38;;;;;;;5.47;100.00;98073.03;2074554;28;20193;-78
2022/04/24 04:01:17;;;;;;;77.88;54.35;;;;;;;5.52;100.00;98079.06;2074495;28;20196;-78
2022/04/24 04:02:17;;;;;;;78.00;53.53;;;;;;;5.46;100.00;98077.56;2074473;28;20207;-78
2022/04/24 04:03:19;;;;;;;85.63;55.77;;;;;;;5.42;100.00;98076.56;2074483;28;20215;-78
2022/04/24 04:04:21;;;;;;;77.32;53.35;;;;;;;5.40;100.00;98076.06;2074470;28;20197;-78
2022/04/24 04:05:25;;;;;;;78.25;52.28;;;;;;;5.37;100.00;98076.63;2074474;28;20185;-78
2022/04/24 04:06:26;;;;;;;81.65;53.92;;;;;;;5.34;100.00;98066.63;2064841;28;20221;-78
2022/04/24 04:07:27;;;;;;;78.57;53.90;;;;;;;5.32;100.00;98074.84;2065900;28;20189;-78
2022/04/24 04:08:28;;;;;;;80.47;54.53;;;;;;;5.32;100.00;98068.78;2074621;28;20655;-78
2022/04/24 04:09:30;;;;;;;77.70;54.23;;;;;;;5.31;100.00;98073.28;2073740;28;20600;-78
2022/04/24 04:10:30;;;;;;;77.93;52.35;;;;;;;5.33;100.00;98073.78;2065610;28;20578;-78
2022/04/24 04:11:35;;;;;;;74.57;52.80;;;;;;;5.31;100.00;98075.94;2065980;28;20297;-78
2022/04/24 04:12:36;;;;;;;83.80;53.80;;;;;;;5.30;100.00;98073.53;2065259;28;20209;-78
2022/04/24 04:13:38;;;;;;;82.53;53.78;;;;;;;5.31;100.00;98069.84;2065901;28;20191;-78
2022/04/24 04:14:39;;;;;;;79.47;51.97;;;;;;;5.31;100.00;98070.63;2065377;28;20205;-78
2022/04/24 04:15:41;;;;;;;69.87;49.63;;;;;;;5.29;100.00;98069.34;2057718;28;20665;-78
2022/04/24 04:16:42;;;;;;;70.35;51.22;;;;;;;5.29;100.00;98071.97;2057728;28;20202;-78
2022/04/24 04:17:45;;;;;;;72.77;51.03;;;;;;;5.26;100.00;98062.75;2057550;28;20252;-78
2022/04/24 04:18:48;;;;;;;76.47;50.17;;;;;;;5.27;100.00;98063.53;2066036;28;20197;-78
2022/04/24 04:19:49;;;;;;;72.10;49.65;;;;;;;5.28;100.00;98065.91;2065691;28;20189;-78
2022/04/24 04:20:50;;;;;;;70.28;48.40;;;;;;;5.28;100.00;98065.91;2065800;28;20190;-79
2022/04/24 04:21:52;;;;;;;74.97;51.70;;;;;;;5.27;100.00;98066.19;2073791;28;20252;-79
2022/04/24 04:22:52;;;;;;;78.20;53.78;;;;;;;5.26;100.00;98061.97;2074341;28;20708;-79
2022/04/24 04:23:54;;;;;;;83.37;54.10;;;;;;;5.27;100.00;98064.34;2074527;28;20586;-80
2022/04/24 04:24:57;;;;;;;74.47;50.92;;;;;;;5.28;100.00;98065.13;2065542;28;20706;-80
2022/04/24 04:26:00;;;;;;;75.85;51.50;;;;;;;5.29;100.00;98062.19;2057525;28;20312;-80
2022/04/24 04:27:03;;;;;;;78.28;52.22;;;;;;;5.31;100.00;98061.91;2057356;28;20206;-81
2022/04/24 04:28:04;;;;;;;76.40;52.40;;;;;;;5.30;100.00;98061.13;2065740;28;20193;-80
2022/04/24 04:29:06;;;;;;;73.43;52.23;;;;;;;5.34;100.00;98063.97;2065605;28;20224;-80
2022/04/24 04:30:08;;;;;;;75.18;52.33;;;;;;;5.35;100.00;98062.91;2065785;28;20490;-80
2022/04/24 04:31:12;;;;;;;74.38;52.63;;;;;;;5.35;100.00;98055.75;2074260;28;20226;-80
2022/04/24 04:32:14;;;;;;;75.90;52.35;;;;;;;5.36;100.00;98059.19;2074328;28;20208;-80
2022/04/24 04:33:16;;;;;;;80.03;54.70;;;;;;;5.37;100.00;98058.09;2074240;28;20528;-80
2022/04/24 04:34:17;;;;;;;79.05;53.05;;;;;;;5.36;100.00;98057.31;2074222;28;20200;-80
2022/04/24 04:35:22;;;;;;;72.60;52.27;;;;;;;5.37;100.00;98058.09;2074452;28;20272;-80
2022/04/24 04:36:23;;;;;;;79.53;53.47;;;;;;;5.37;100.00;98060.75;2073863;28;20732;-80
2022/04/24 04:37:24;;;;;;;74.47;52.10;;;;;;;5.38;100.00;98051.75;2074232;28;20595;-80
2022/04/24 04:38:26;;;;;;;76.88;54.60;;;;;;;5.38;100.00;98055.19;2074169;28;20197;-79
2022/04/24 04:39:28;;;;;;;80.20;54.17;;;;;;;5.37;100.00;98052.81;2064668;28;20201;-79
2022/04/24 04:40:30;;;;;;;72.88;52.28;;;;;;;5.37;100.00;98055.47;2056840;28;20692;-80
2022/04/24 04:41:32;;;;;;;71.88;52.65;;;;;;;5.36;100.00;98053.91;2057503;28;20268;-79
2022/04/24 04:42:34;;;;;;;73.80;52.40;;;;;;;5.38;100.00;98057.03;2065861;28;20215;-79
2022/04/24 04:43:36;;;;;;;74.20;51.30;;;;;;;5.42;100.00;98052.75;2065459;28;20200;-79
2022/04/24 04:44:36;;;;;;;71.47;51.30;;;;;;;5.41;100.00;98053.06;2065819;28;20201;-79
2022/04/24 04:45:38;;;;;;;69.63;50.27;;;;;;;5.44;100.00;98041.88;2074166;28;20188;-80